Relevés horaires Bierset (Belgique)


Relevés horaires à Bierset - Jeudi 08 Sept. 2016
Heure UTC1 Température [°C] Vent [km/h] Hum. [%] Pres.4 [hPa] Visi. [Km] Nébu. [octa] Préc.5 [mm] Cond.
2m. Res. Ros. Dir.2 Vit. Moy. Raf.3
23:00 14.7 14.6 10.7 OSO 7.4 9.3 11.1 77 1018.1(1.8/3h) 30 1/8 -- --
22:00 15.7 15.7 10.5 O 7.4 7.4 11.1 71 1017.6(2.5/3h) 30 1/8 -- --
21:00 16.7 16.7 10.2 O 7.4 13.0 16.7 65 1016.9(2.7/3h) 30 1/8 -- --
20:00 18.3 18.3 9.8 O 11.1 13.0 16.7 58 1016(2.6/3h) 30 1/8 -- --
19:00 20.2 20.2 14.9 O 7.4 11.1 16.7 72 1014.7(2.1/3h) 30 1/8 -- --
18:00 22.2 22.2 15.5 O 11.1 13.0 16.7 66 1013.7(1.6/3h) 30 1/8 0/12h
--
17:00 24.5 24.5 14.4 O 11.1 13.0 16.7 53 1012.9(1.2/3h) 30 1/8 -- --
16:00 26.5 26.5 13.2 O 11.1 11.1 16.7 44 1012.2(0.7/3h) 30 1/8 -- --
15:00 27.3 27.3 11.9 OSO 9.3 13.0 16.7 38 1011.7(0.6/3h) 30 1/8 -- --
14:00 27.2 27.2 12.1 OSO 11.1 13.0 16.7 39 1011.5(0.4/3h) 30 1/8 -- --
13:00 27.2 27.2 12.0 SO 11.1 11.1 16.7 39 1011.4(0.5/3h) 30 1/8 -- --
12:00 26.9 26.9 11.6 OSO 9.3 11.1 14.8 39 1011.1(0.2/3h) 30 1/8 0/6h
--
11:00 25.8 25.8 12.4 OSO 9.3 9.3 14.8 43 1011.2(0.3/3h) 30 1/8 -- --
10:00 24.5 24.5 13.5 SSO 7.4 9.3 13.0 50 1011.1(0.3/3h) 30 1/8 -- --
09:00 22.2 22.2 13.5 SSO 9.3 11.1 13.0 58 1011.2(0.2/3h) 25 1/8 -- --
08:00 20.1 20.1 13.0 SSO 9.3 9.3 11.1 64 1011.3(0.1/3h) 25 1/8 -- --
07:00 17.8 17.8 12.9 SSE 5.6 9.3 11.1 73 1011.3(-0.1/3h) 25 1/8 -- --
06:00 16.0 16.0 12.4 SSE 7.4 7.4 25.9 79 1011.4(-0.5/3h) 25 1/8 0/12h
--
05:00 15.6 15.6 12.3 SSE 5.6 7.4 25.9 81 1011.6(-1.3/3h) 35 3/8 -- --
04:00 16.2 16.2 12.8 NNO 7.4 7.4 22.2 80 1011.5(-1.8/3h) 35 1/8 -- --
03:00 16.6 16.6 12.8 NNO 5.6 7.4 14.8 78 1012(-1.7/3h) 35 1/8 -- --
02:00 17.6 17.6 12.9 SE 5.6 5.6 7.4 74 1012.7(-0.8/3h) 35 1/8 -- --
01:00 17.9 17.9 12.7 SSE 5.6 5.6 5.6 72 1013.2(-1.5/3h) 35 1/8 -- --
00:00 18.4 18.4 12.6 SE 3.7 7.4 20.4 69 1013.6(-1.9/3h) 35 1/8 0/6h
0/24h
--

1 Coordinated Universal Time. Actuellement il est 07:00 locale et 05:00 UTC.

2 Le vent souffle depuis la direction indiquée vers la direction oposée.

3 Les rafales max. sont disponible 40 min après l'heure du relevé.

4 Pour les stations d'altitude (plus de 600m) le géopotentiel du niveau le plus proche de la pression obligatoire est indiqué.

5 Les stations disposant d'un diffuseur peuvent indiquer "trace". Cela signifie que des précipitations ont touchés le sol mais que la quantité est inférieure à 0.1 mm.

Récapitulatif de la journée
Température [°C] Vent [km/h] Ensoleillement4 [h] Precipitations totale5 [mm] Pression [Hpa]
Min1 Max.2 Moy.3 Max. Min Max.
15.3 27.9 9.8 25.9 0 h 0 min 0 1011.1 1018.1

1 Température minimale relevée entre 18:00 UTC la veille et 18:00 UTC le jour donné.

2 Température maximale relevée entre 06:00 UTC le jour donné et 06:00 UTC le lendemain.

3 Vent moyen de la journée basé sur les relevés horaires.

4 Ensoleillement en heures relevé entre 06:00 UTC la veille et 06:00 UTC le jour donné.

5 Précipitations totales tombées entre 06:00 UTC la jour donné et 06:00 UTC le lendemain.

Graphiques horaires